Ottumwa, IA

5:27 AM CST on March 02, 2015 (GMT -0600)
IADOT Ottumwa (US 63) | Change Station
CLOSE
Current Station
Personal Weather Station
Location: Ottumwa, IA
Elevation: 643 ft
Nearby Weather Stations

Elev 643 ft 41.02 °N, 92.42 °W | Updated 23 minutes ago

Clear
Clear
15.0 °F
Feels Like 15.0 °F
N
1.0
Wind Variable Wind from West
Gusts 3.0 mph

Today
High -- | Low -- °F
--% Chance of Precip.
Yesterday
High -- | Low -- °F
Precip. -- in
6:42 AM 6:01 PM
Waxing Gibbous, 91% visible
Pressure 30.54 in
Visibility 10.0 miles
Clouds Clear
Dew Point 13.0 °F
Humidity 92%
Rainfall -999.00 in
Snow Depth Not available.
UV 0 out of 12
Pollen .50 out of 12
Air Quality Not available.
Flu Activity Not available.
METAR KOTM 021053Z AUTO 35007KT 10SM CLR M09/M12 A3050 RMK AO2 SLP342 T10941122

More Conditions Fewer Conditions

Pressure 30.54 in
Visibility 10.0 miles
Clouds Clear
Dew Point 13.0 °F
Humidity 92%
Rainfall -999.00 in
Snow Depth Not available.
UV 0 out of 12
Pollen .50 out of 12
Air Quality Not available.
Flu Activity Not available.
METAR KOTM 021053Z AUTO 35007KT 10SM CLR M09/M12 A3050 RMK AO2 SLP342 T10941122

More Conditions Fewer Conditions

10-Day Weather Forecast

Almanac

Astronomy

Mar. 02, 2015 Rise Set
Actual Time
Civil Twilight
Nautical Twilight
Astronomical Twilight
Moon
Length of Visible Light
Length of Day
Tomorrow will be .
, % of the Moon is Illuminated

Today's Extremes

State Highs State Lows

Community

WunderPhotos

Upload Photos

1,801,756 photos uploaded!

WunderBlogs® & News

Nearby

Air Quality

  Air Quality AQ Index Pollutant
Not available.

Snow Depth

Station Depth Elevation

Earthquake Activity

City Distance Mag. Time & Date
Minimum magnitude displayed is 2.5.

Coastal Water Temperatures

Place Temperature

Nearby Weather Stations